Date,TemperatureHighF,TemperatureAvgF,TemperatureLowF,DewpointHighF,DewpointAvgF,DewpointLowF,HumidityHigh,HumidityAvg,HumidityLow,PressureMaxIn,PressureMinIn,WindSpeedMaxMPH,WindSpeedAvgMPH,GustSpeedMaxMPH,PrecipitationSumIn
2012-1-1,59,46,38,45,39,34,88,78,58,30.26,30.14,9,1,16,0.00
2012-1-2,57,46,40,46,40,36,87,80,63,30.32,30.17,7,1,18,0.00
2012-1-3,60,47,38,42,38,33,85,72,46,30.36,30.26,9,1,20,0.00
2012-1-4,62,48,39,44,38,33,82,70,46,30.42,30.27,8,1,12,0.00
2012-1-5,62,48,39,43,38,34,83,68,45,30.32,30.13,6,1,12,0.00
2012-1-6,58,45,37,44,37,32,86,74,57,30.19,30.10,8,1,16,0.00
2012-1-7,61,49,37,36,32,25,85,56,31,30.20,30.10,24,6,47,0.00
2012-1-8,60,47,36,40,35,26,79,64,45,30.27,30.17,7,1,12,0.00
2012-1-9,61,46,36,41,36,31,83,69,45,30.28,30.15,7,1,12,0.00
2012-1-10,61,46,36,38,34,30,82,65,35,30.19,30.07,8,1,18,0.00
2012-1-11,61,46,36,37,33,29,79,63,38,30.16,30.02,6,0,11,0.00
2012-1-12,60,46,37,35,32,30,77,60,33,30.15,30.05,9,2,21,0.00
2012-1-13,62,47,37,34,32,29,74,57,33,30.26,30.14,9,1,16,0.00
2012-1-14,63,47,35,35,31,28,76,57,32,30.23,30.07,4,0,11,0.00
2012-1-15,57,45,38,41,33,25,72,62,48,30.12,29.95,11,3,33,0.00
2012-1-16,49,39,30,27,20,17,69,48,28,30.33,30.13,13,2,31,0.00
2012-1-17,51,39,28,28,22,18,69,53,31,30.44,30.32,8,1,16,0.00
2012-1-18,55,44,35,26,24,22,62,46,29,30.43,30.27,7,1,19,0.00
2012-1-19,48,42,38,39,29,22,87,60,37,30.27,30.08,12,2,28,0.28
2012-1-20,52,47,43,50,45,39,93,91,85,30.08,29.72,14,5,35,0.62
2012-1-21,56,49,43,46,41,36,91,73,51,30.15,29.71,12,3,30,1.12
2012-1-22,49,45,42,43,39,36,87,80,71,30.19,29.87,11,4,28,0.31
2012-1-23,50,47,42,47,44,39,92,90,87,30.15,29.68,17,4,35,0.85
2012-1-24,55,46,39,48,43,36,92,87,74,30.43,30.15,7,1,13,0.02
2012-1-25,60,50,43,49,44,40,90,81,64,30.47,30.32,10,2,22,0.00
2012-1-26,58,52,45,54,48,41,91,87,83,30.35,30.22,10,2,24,0.00
2012-1-27,62,51,42,49,39,34,91,66,37,30.28,30.18,11,5,29,0.00
2012-1-28,61,47,36,47,40,31,86,75,58,30.38,30.26,7,1,12,0.00
2012-1-29,64,50,40,43,40,35,85,70,43,30.30,30.11,8,1,15,0.00
2012-1-30,63,51,43,44,41,37,81,69,47,30.14,29.99,9,2,15,0.00
2012-1-31,60,49,41,47,42,36,91,78,57,30.17,30.03,9,2,15,0.00
2012-2-1,57,50,45,48,45,41,90,83,69,30.27,30.16,10,2,17,0.06
2012-2-2,59,47,41,44,40,36,88,77,54,30.23,29.97,11,3,19,0.02
2012-2-3,61,47,37,43,38,33,86,70,48,30.09,30.01,9,1,20,0.02
2012-2-4,66,50,39,40,35,33,80,60,31,30.12,30.06,7,1,12,0.02
2012-2-5,65,49,39,38,34,30,76,59,34,30.12,30.01,7,1,12,0.00
2012-2-6,66,52,40,39,35,31,73,55,31,30.03,29.77,7,2,16,0.00
2012-2-7,59,52,48,46,43,34,81,71,52,30.10,29.80,8,1,19,0.04
2012-2-8,66,53,45,48,44,40,85,73,52,30.25,30.10,14,2,29,0.02
2012-2-9,70,54,45,50,45,40,85,72,44,30.29,30.13,9,1,26,0.00
2012-2-10,66,54,44,52,45,39,85,72,49,30.19,30.06,8,1,15,0.00
2012-2-11,58,52,47,48,45,41,86,77,62,30.06,29.97,11,1,16,0.00
2012-2-12,60,49,43,49,43,39,91,81,56,30.05,29.96,10,1,15,0.13
2012-2-13,53,45,41,44,40,37,91,83,67,30.00,29.90,10,1,17,0.47
2012-2-14,58,46,36,44,38,33,90,77,57,30.08,29.97,8,2,20,0.02
2012-2-15,58,48,39,40,31,25,82,53,34,30.16,30.00,21,7,57,0.00
2012-2-16,66,50,38,34,29,25,64,45,24,30.26,30.15,13,3,26,0.00
2012-2-17,66,52,40,40,35,31,74,55,34,30.28,30.15,8,1,20,0.00
2012-2-18,59,50,44,48,41,30,84,73,59,30.18,30.06,12,2,22,0.00
2012-2-19,61,47,38,35,31,23,79,57,27,30.12,30.03,8,1,17,0.00
2012-2-20,57,50,44,43,40,36,77,68,53,30.20,30.08,11,3,20,0.00
2012-2-21,65,51,39,47,41,35,85,70,46,30.30,30.19,7,1,18,0.00
2012-2-22,69,56,46,48,44,41,82,66,43,30.29,30.04,11,1,25,0.00
2012-2-23,70,57,48,42,34,27,79,46,21,30.04,29.92,19,7,50,0.00
2012-2-24,73,56,42,48,36,27,72,48,27,30.12,29.98,14,2,28,0.00
2012-2-25,62,51,42,39,32,26,81,52,29,30.31,30.10,14,4,42,0.00
2012-2-26,57,46,35,31,27,23,66,49,28,30.18,29.84,11,2,22,0.00
2012-2-27,57,46,38,37,32,30,76,60,41,29.93,29.80,8,2,21,0.00
2012-2-28,55,46,38,37,33,30,77,62,46,30.21,29.93,13,4,33,0.00
2012-2-29,49,46,43,44,40,33,90,80,56,30.23,30.04,12,5,33,0.66
2012-3-1,50,45,43,45,40,38,90,84,81,30.24,30.16,9,3,30,0.10
2012-3-2,59,47,35,39,33,29,87,62,34,30.35,30.23,14,3,22,0.02
2012-3-3,69,52,39,43,38,33,82,62,32,30.37,30.23,6,1,17,0.00
2012-3-4,74,56,42,45,41,36,81,60,33,30.25,30.03,8,1,18,0.00
2012-3-5,74,57,44,50,42,37,79,58,35,30.08,29.91,9,2,16,0.00
2012-3-6,59,50,42,41,28,17,81,47,21,30.03,29.86,25,7,58,0.00
2012-3-7,64,49,37,29,21,15,51,35,19,30.18,30.03,22,6,41,0.00
2012-3-8,70,54,40,34,29,24,59,40,24,30.34,30.18,7,2,19,0.00
2012-3-9,75,56,41,39,35,32,73,49,24,30.34,30.09,10,1,16,0.00
2012-3-10,66,52,42,47,39,32,79,63,42,30.09,29.92,9,3,24,0.00
2012-3-11,58,51,46,45,41,36,79,69,56,30.06,29.97,12,3,33,0.00
2012-3-12,64,52,43,40,37,34,72,58,41,30.05,29.90,13,2,36,0.00
2012-3-13,52,52,49,48,45,39,87,78,62,30.00,29.87,11,4,23,0.28
2012-3-14,55,53,51,55,50,47,100,91,87,30.12,29.98,7,2,11,1.23
2012-3-15,59,56,54,55,52,51,91,90,85,30.15,30.03,8,0,12,0.04
2012-3-16,55,53,49,53,50,45,97,91,88,30.04,29.69,10,2,20,1.30
2012-3-17,51,46,41,45,41,38,91,84,64,29.72,29.49,12,2,20,0.85
2012-3-18,55,44,41,42,39,36,91,82,60,29.92,29.59,17,3,33,0.33
2012-3-19,54,46,38,40,35,33,85,69,47,30.08,29.92,13,1,16,0.02
2012-3-20,65,55,46,45,39,-100,80,59,38,30.21,30.08,10,1,17,0.00
2012-3-21,73,59,46,51,46,41,84,65,45,30.17,29.94,8,1,17,0.00
2012-3-22,61,55,47,50,43,-100,83,66,38,29.98,29.88,17,-4,26,0.00
2012-3-23,65,52,41,40,35,32,77,56,31,30.10,29.88,9,2,17,0.00
2012-3-24,56,51,46,44,40,38,79,67,55,29.91,29.81,12,3,31,0.00
2012-3-25,58,50,44,46,42,40,89,77,57,29.88,29.77,12,2,21,0.53
2012-3-26,59,51,42,44,41,37,87,71,52,30.10,29.85,9,2,41,0.02
2012-3-27,58,52,49,47,43,37,91,73,48,30.05,29.89,14,3,34,1.02
2012-3-28,66,55,50,53,48,42,92,78,52,30.10,29.95,10,4,19,1.33
2012-3-29,64,55,46,52,47,42,87,75,54,30.13,30.05,6,0,6,0.08
2012-3-30,71,59,51,54,51,48,90,75,53,30.11,29.88,10,2,22,0.04
2012-3-31,59,52,46,51,46,41,89,80,66,30.00,29.70,14,4,49,0.35
2012-4-1,64,52,43,44,39,29,90,65,30,30.24,30.00,19,3,38,1.66
2012-4-2,68,53,41,45,39,35,80,61,34,30.22,30.00,15,2,26,0.00
2012-4-3,68,56,48,49,44,41,86,66,42,30.07,29.93,9,3,24,0.08
2012-4-4,65,53,41,48,37,29,87,59,30,30.17,30.02,12,4,27,0.14
2012-4-5,62,49,36,36,32,23,83,55,25,30.15,30.04,16,4,36,0.00
2012-4-6,66,50,38,38,33,29,77,56,28,30.28,30.15,13,3,22,1.65
2012-4-7,70,54,40,42,36,33,77,54,26,30.15,30.01,8,1,16,1.65
2012-4-8,73,58,46,45,40,38,76,56,32,30.04,29.95,6,1,11,1.65
2012-4-9,73,59,46,45,40,35,75,53,28,29.99,29.79,6,1,15,1.65
2012-4-10,63,56,50,50,44,37,79,65,54,29.90,29.79,10,3,19,0.00
2012-4-11,56,51,48,50,47,44,90,86,78,30.00,29.79,11,2,22,1.37
2012-4-12,58,49,45,50,45,42,91,85,72,30.06,29.81,18,5,47,1.25
2012-4-13,56,48,45,48,44,42,92,88,74,29.82,29.68,12,3,39,1.19
2012-4-14,65,53,44,48,44,-100,91,75,50,30.08,29.83,11,2,36,0.04
2012-4-15,72,58,45,52,47,41,86,68,45,30.20,30.08,10,2,16,0.00
2012-4-16,75,60,48,47,42,32,80,55,24,30.21,30.11,9,2,22,0.00
2012-4-17,74,60,49,54,47,42,79,63,38,30.15,30.01,9,3,23,0.00
2012-4-18,74,62,51,52,48,42,82,63,34,30.12,30.02,9,3,16,0.00
2012-4-19,82,68,53,58,53,48,84,63,40,30.12,29.98,21,4,39,0.00
2012-4-20,89,73,57,63,57,52,83,61,31,30.03,29.88,17,2,25,0.00
2012-4-21,92,75,59,62,58,54,83,59,35,29.93,29.78,8,1,21,0.00
2012-4-22,95,77,62,64,59,55,78,57,32,29.84,29.73,9,2,20,0.00
2012-4-23,75,64,55,56,52,49,84,67,48,29.98,29.79,11,5,26,0.00
2012-4-24,79,67,58,55,52,49,75,62,41,30.04,29.87,7,2,17,0.00
2012-4-25,67,62,59,59,55,51,89,78,71,29.97,29.74,8,1,14,0.45
2012-4-26,67,59,52,56,49,42,91,73,44,30.15,29.75,13,4,45,0.51
2012-4-27,74,59,45,45,42,39,83,58,30,30.20,30.07,13,3,26,0.02
2012-4-28,82,64,48,54,46,-100,82,58,32,30.07,29.81,14,2,29,0.00
2012-4-29,86,70,54,58,54,48,100,60,34,29.89,29.79,8,1,19,0.00
2012-4-30,86,70,58,58,53,49,81,59,32,29.91,29.77,8,2,30,0.00
2012-5-1,78,64,53,53,47,41,78,58,29,29.87,29.78,7,2,24,1.65
2012-5-2,72,60,50,50,44,40,73,58,37,29.93,29.82,12,3,40,1.65
2012-5-3,63,56,50,51,46,41,77,70,62,30.05,29.90,9,3,19,0.00
2012-5-4,73,62,52,56,46,41,100,60,33,30.15,30.05,10,2,26,0.00
2012-5-5,77,63,49,46,40,-100,75,48,25,30.18,29.97,18,6,45,0.00
2012-5-6,86,70,53,46,40,36,53,36,20,30.03,29.91,23,5,32,0.00
2012-5-7,90,72,53,47,42,34,68,40,15,29.99,29.85,10,3,24,0.00
2012-5-8,93,82,69,50,43,32,46,29,12,29.85,29.80,9,2,19,1.65
2012-5-9,92,75,59,53,48,44,64,41,20,29.91,29.76,8,2,23,1.65
2012-5-10,86,71,56,49,45,39,69,42,20,29.87,29.75,20,3,24,0.00
2012-5-11,91,73,56,50,46,38,70,42,17,29.89,29.78,9,2,18,0.00
2012-5-12,93,74,59,56,48,-100,67,45,20,29.99,29.87,8,1,16,0.00
2012-5-13,80,67,56,53,49,46,70,54,34,30.01,29.88,11,3,24,0.00
2012-5-14,76,64,54,50,48,46,75,56,36,30.08,29.94,13,2,23,0.00
2012-5-15,84,68,55,54,50,46,72,54,33,30.00,29.86,10,2,22,0.00
2012-5-16,62,57,54,50,48,47,77,72,63,29.99,29.92,3,0,10,0.00
2012-5-17,77,67,56,52,48,46,70,52,36,29.84,29.71,17,4,34,1.65
2012-5-18,85,69,53,52,45,31,75,47,15,29.89,29.79,14,3,33,1.65
2012-5-19,88,71,55,53,45,-100,66,44,19,29.94,29.83,10,2,15,0.00
2012-5-20,94,75,58,54,50,46,68,44,22,29.93,29.81,11,2,22,0.00
2012-5-21,81,69,58,53,50,48,70,53,34,30.00,29.89,17,4,26,0.00
2012-5-22,86,71,58,57,52,45,79,55,26,30.04,29.90,11,3,20,0.00
2012-5-23,82,69,55,50,45,37,77,46,21,29.96,29.79,12,3,27,0.00
2012-5-24,81,69,57,48,43,33,62,41,20,29.81,29.54,15,4,30,0.00
2012-5-25,70,60,50,42,39,33,68,47,31,29.78,29.62,17,3,24,0.00
2012-5-26,71,60,52,53,45,40,72,59,39,30.04,29.77,14,2,33,0.02
2012-5-27,78,63,50,52,47,44,82,59,33,30.11,29.97,11,2,19,0.02
2012-5-28,76,64,52,50,46,42,77,54,33,30.03,29.92,12,3,24,0.00
2012-5-29,84,67,52,53,47,42,73,52,31,30.03,29.90,11,2,21,0.00
2012-5-30,90,73,56,55,50,47,74,49,23,30.03,29.89,15,2,26,0.00
2012-5-31,95,78,61,60,53,48,66,45,23,29.97,29.76,8,1,15,0.00
2012-6-1,98,81,64,61,57,54,71,47,26,29.78,29.62,7,2,21,1.65
2012-6-2,90,74,62,60,53,-100,68,51,33,29.85,29.70,13,4,32,0.00
2012-6-3,91,73,59,55,49,45,65,46,25,29.87,29.74,12,3,24,0.00
2012-6-4,66,61,55,55,50,45,83,68,52,30.04,29.82,12,3,27,0.08
2012-6-5,72,61,49,46,42,35,78,53,28,30.15,30.04,16,4,42,0.02
2012-6-6,81,66,51,47,44,41,74,47,25,30.03,29.86,13,3,24,0.00
2012-6-7,86,70,56,52,48,43,66,47,26,29.96,29.84,14,3,21,1.65
2012-6-8,85,70,58,53,47,39,70,47,20,29.91,29.78,11,3,25,0.00
2012-6-9,82,68,54,44,40,36,66,39,20,29.95,29.76,26,7,54,0.00
2012-6-10,92,75,60,50,42,36,48,32,17,29.87,29.79,13,5,37,0.00
2012-6-11,98,78,60,50,46,38,64,37,15,29.90,29.81,11,2,20,0.00
2012-6-12,97,80,62,56,50,43,62,39,17,29.90,29.75,9,3,21,0.00
2012-6-13,96,78,61,59,54,50,67,47,25,29.80,29.62,13,2,21,0.00
2012-6-14,96,78,62,58,52,49,63,44,22,29.71,29.62,11,2,24,0.00
2012-6-15,98,79,61,59,51,45,59,40,22,29.72,29.65,10,2,30,0.00
2012-6-16,105,85,67,62,54,-100,70,40,16,29.77,29.67,12,2,27,0.00
2012-6-17,100,84,69,61,56,49,68,42,22,29.78,29.68,14,3,36,0.00
2012-6-18,87,72,59,53,50,45,73,48,24,29.84,29.70,11,4,39,0.00
2012-6-19,93,74,57,53,47,38,68,43,15,29.83,29.72,9,2,21,0.00
2012-6-20,99,80,62,53,48,37,65,37,12,29.79,29.67,25,3,28,0.00
2012-6-21,76,68,57,52,48,46,69,51,36,29.86,29.71,16,5,43,0.00
2012-6-22,73,62,52,53,49,45,77,62,48,29.90,29.80,18,4,43,0.00
2012-6-23,77,64,54,51,45,35,78,53,23,29.87,29.79,20,4,33,0.00
2012-6-24,79,65,52,46,42,35,77,48,21,29.99,29.87,11,3,26,0.00
2012-6-25,77,65,54,48,45,40,68,50,30,30.06,29.92,18,4,27,0.00
2012-6-26,83,68,54,51,48,46,75,52,28,30.02,29.80,12,3,26,0.00
2012-6-27,91,73,56,51,45,38,70,42,17,29.86,29.78,12,3,19,0.00
2012-6-28,91,74,60,52,47,42,59,40,22,29.98,29.86,9,3,29,0.00
2012-6-29,86,71,58,56,52,50,76,54,31,30.02,29.90,10,3,25,0.00
2012-6-30,89,74,58,61,57,52,79,57,37,29.95,29.81,16,3,43,0.00
2012-7-1,88,73,61,60,58,54,81,62,39,29.90,29.76,11,3,22,1.65
2012-7-2,93,76,62,62,57,51,79,55,32,29.83,29.71,11,3,26,0.00
2012-7-3,94,75,58,58,53,48,70,49,26,29.85,29.70,9,2,19,0.00
2012-7-4,95,78,63,59,53,50,65,44,23,29.78,29.69,12,3,33,0.00
2012-7-5,88,72,58,54,50,47,74,50,25,29.89,29.77,12,3,37,0.00
2012-7-6,94,74,57,56,50,45,73,47,21,29.96,29.85,12,2,15,0.00
2012-7-7,99,81,63,57,50,45,62,38,16,29.92,29.80,13,3,30,0.00
2012-7-8,99,81,64,54,49,45,53,35,19,29.91,29.83,11,2,30,0.00
2012-7-9,99,78,60,56,50,46,68,41,17,29.95,29.83,10,2,25,0.00
2012-7-10,102,81,61,57,50,40,65,38,14,29.89,29.72,10,2,22,0.00
2012-7-11,105,84,64,55,50,40,64,36,12,29.81,29.69,9,2,26,0.00
2012-7-12,104,88,67,59,53,46,57,34,15,29.75,29.66,9,2,21,1.65
2012-7-13,88,74,61,55,51,48,69,47,29,29.83,29.73,13,4,39,1.65
2012-7-14,90,71,56,56,53,49,79,56,28,29.90,29.75,11,2,24,0.00
2012-7-15,95,76,60,58,54,51,72,50,24,29.84,29.68,8,2,22,0.00
2012-7-16,78,66,56,55,51,49,80,60,39,29.85,29.73,13,5,38,0.00
2012-7-17,77,65,58,53,51,49,74,61,42,29.95,29.85,15,4,30,0.00
2012-7-18,87,71,57,56,52,48,74,54,32,29.96,29.85,13,2,25,0.00
2012-7-19,87,72,62,56,52,48,68,52,32,29.98,29.89,11,2,30,0.00
2012-7-20,94,75,59,57,53,49,80,52,23,30.02,29.87,10,3,26,1.65
2012-7-21,102,82,64,59,54,46,67,41,16,29.92,29.76,10,2,22,1.65
2012-7-22,103,85,67,59,56,53,66,41,20,29.82,29.70,11,2,18,0.00
2012-7-23,93,79,66,58,53,47,76,44,24,29.84,29.73,12,3,18,0.02
2012-7-24,93,76,61,54,51,47,68,45,22,29.91,29.79,10,2,28,0.02
2012-7-25,94,76,61,54,50,44,66,45,23,29.94,29.79,10,2,22,0.00
2012-7-26,89,72,57,54,51,48,77,52,26,29.92,29.80,17,2,28,0.00
2012-7-27,90,71,55,56,52,49,81,55,29,29.95,29.84,14,2,20,0.00
2012-7-28,94,75,58,58,53,50,75,50,25,29.97,29.86,10,2,23,0.00
2012-7-29,95,76,59,57,52,50,75,48,23,29.98,29.83,10,2,23,0.00
2012-7-30,98,79,61,57,53,48,72,45,19,29.92,29.77,10,2,29,0.00
2012-7-31,100,83,64,56,52,48,64,38,18,29.90,29.81,10,2,16,0.00
2012-8-1,100,82,63,56,51,44,61,37,15,29.97,29.84,9,2,19,1.65
2012-8-2,101,82,62,57,52,47,63,39,19,29.92,29.75,10,2,20,0.00
2012-8-3,98,79,63,58,53,49,63,43,25,29.81,29.67,8,2,19,0.00
2012-8-4,81,70,60,56,52,49,70,55,39,29.89,29.72,11,3,22,0.00
2012-8-5,91,73,60,60,55,51,80,56,33,29.98,29.86,14,2,20,0.00
2012-8-6,97,76,58,55,51,48,73,47,20,30.04,29.91,12,1,17,0.00
2012-8-7,99,80,61,56,51,45,68,41,16,29.97,29.84,9,2,19,0.00
2012-8-8,99,79,62,55,51,46,62,40,20,29.93,29.80,13,2,19,0.00
2012-8-9,103,83,63,57,52,46,62,39,16,29.86,29.71,9,2,19,0.00
2012-8-10,104,85,66,57,52,46,61,36,15,29.77,29.62,8,2,13,0.00
2012-8-11,106,84,65,56,51,-100,62,37,15,29.71,29.62,9,2,17,0.00
2012-8-12,102,85,69,58,50,39,49,32,14,29.77,29.67,7,2,19,0.00
2012-8-13,105,87,69,56,51,47,52,32,17,29.77,29.64,7,2,18,0.00
2012-8-14,98,83,72,57,51,45,45,33,24,29.73,29.63,8,1,19,0.00
2012-8-15,98,81,67,60,51,42,58,37,23,29.78,29.68,8,2,15,0.00
2012-8-16,99,79,61,56,52,47,67,42,21,29.86,29.75,7,1,18,0.00
2012-8-17,96,78,61,58,52,47,65,42,25,29.90,29.77,7,1,15,0.00
2012-8-18,97,80,69,54,50,46,52,38,19,29.88,29.75,9,2,15,0.00
2012-8-19,94,77,61,56,52,49,65,44,25,29.87,29.76,22,2,23,0.00
2012-8-20,96,78,61,57,52,49,68,44,22,29.85,29.72,9,1,20,0.00
2012-8-21,92,76,60,57,51,47,65,44,24,29.84,29.72,9,2,15,0.00
2012-8-22,93,75,60,57,53,50,71,49,27,29.83,29.75,11,2,20,0.00
2012-8-23,91,75,60,58,52,42,72,48,21,29.86,29.73,9,2,16,0.00
2012-8-24,93,77,60,57,51,42,72,44,19,29.82,29.71,10,1,15,0.00
2012-8-25,87,72,59,55,50,45,69,48,30,29.79,29.67,11,2,19,0.00
2012-8-26,78,66,55,52,49,46,79,57,33,29.91,29.76,17,4,36,0.00
2012-8-27,88,71,56,54,49,43,74,50,22,30.00,29.86,9,2,15,0.00
2012-8-28,93,75,58,58,50,43,67,45,21,29.97,29.83,10,2,18,0.00
2012-8-29,93,76,57,51,48,44,66,41,19,29.87,29.71,12,2,20,0.00
2012-8-30,96,77,60,52,47,34,64,39,14,29.75,29.64,9,2,20,0.00
2012-8-31,76,64,56,54,50,48,78,62,43,29.90,29.74,18,3,29,0.00
2012-9-1,80,65,53,55,50,47,81,61,33,30.00,29.88,15,2,21,0.00
2012-9-2,89,72,56,54,50,46,78,50,23,29.94,29.80,7,1,14,0.00
2012-9-3,93,76,59,51,47,43,65,40,19,29.92,29.81,8,1,18,0.00
2012-9-4,94,76,60,51,47,45,63,39,20,29.94,29.83,10,2,17,0.00
2012-9-5,83,71,59,52,49,45,68,48,30,29.93,29.81,14,1,18,0.00
2012-9-6,87,73,62,51,47,43,59,41,23,29.92,29.84,11,2,20,0.00
2012-9-7,89,73,59,53,48,43,60,43,24,30.02,29.88,11,2,20,0.00
2012-9-8,90,74,62,53,48,44,56,41,26,29.97,29.82,10,2,20,0.00
2012-9-9,88,72,59,49,46,38,61,42,18,29.91,29.77,12,2,17,0.00
2012-9-10,88,71,55,52,47,40,73,47,19,29.88,29.71,12,2,17,0.00
2012-9-11,90,74,58,53,49,46,68,44,24,29.85,29.76,12,1,16,0.00
2012-9-12,90,75,61,55,51,48,62,46,25,29.99,29.85,7,1,20,0.00
2012-9-13,93,76,61,58,54,49,67,48,27,30.02,29.89,11,1,20,0.00
2012-9-14,91,76,63,59,54,50,67,48,31,30.00,29.88,9,1,14,0.00
2012-9-15,92,75,60,53,49,46,60,43,22,30.02,29.88,10,1,16,0.00
2012-9-16,93,74,59,53,46,42,58,40,19,29.98,29.86,9,1,17,0.00
2012-9-17,86,70,58,51,47,44,67,46,28,29.97,29.86,7,1,15,0.00
2012-9-18,84,68,53,51,48,45,76,51,26,30.03,29.89,13,1,15,0.00
2012-9-19,83,68,55,54,49,45,75,53,32,30.03,29.90,7,1,15,0.00
2012-9-20,85,70,56,53,49,46,73,51,27,30.00,29.85,7,1,16,0.00
2012-9-21,86,71,58,56,48,43,66,46,28,29.93,29.78,8,1,11,0.00
2012-9-22,91,73,59,54,48,-100,65,45,23,29.88,29.77,10,1,13,0.00
2012-9-23,87,72,61,53,49,43,69,47,26,29.90,29.81,10,1,14,0.00
2012-9-24,85,70,58,50,46,42,66,45,25,29.91,29.77,9,1,16,0.00
2012-9-25,86,70,56,53,48,43,72,47,26,29.86,29.73,10,1,13,0.00
2012-9-26,88,72,58,54,51,47,75,51,27,29.85,29.73,7,1,17,0.00
2012-9-27,90,73,59,57,53,50,79,53,29,29.87,29.74,9,2,16,0.00
2012-9-28,89,73,59,55,52,50,76,52,27,29.86,29.74,9,2,17,0.00
2012-9-29,87,71,58,56,52,49,79,55,28,29.98,29.84,12,1,12,0.00
2012-9-30,91,74,59,55,52,49,75,50,27,30.02,29.87,13,2,21,0.00
2012-10-1,93,76,60,56,50,44,77,45,20,29.97,29.80,7,1,11,0.00
2012-10-2,95,76,62,54,49,44,63,42,20,29.86,29.71,6,1,12,0.00
2012-10-3,93,76,61,52,47,42,62,39,22,29.87,29.73,8,1,14,0.00
2012-10-4,76,66,58,56,51,47,89,61,38,30.04,29.87,13,3,38,0.00
2012-10-5,76,64,56,57,51,44,98,67,33,30.11,29.99,9,2,28,0.00
2012-10-6,75,64,57,56,50,40,93,65,31,30.03,29.89,7,1,14,0.00
2012-10-7,79,64,55,57,49,37,98,63,30,29.98,29.84,9,1,16,0.00
2012-10-8,75,62,56,56,45,23,96,60,16,29.99,29.91,7,1,16,0.00
2012-10-9,76,62,56,59,49,23,98,70,16,30.01,29.87,10,1,16,0.00
2012-10-10,78,67,58,57,39,12,98,45,9,29.92,29.79,9,1,22,0.00
2012-10-11,63,60,57,60,56,51,98,87,66,29.95,29.82,12,2,26,0.00
2012-10-12,66,63,60,62,55,42,98,81,44,30.18,29.94,7,1,12,0.00
2012-10-13,73,66,62,64,49,13,98,66,10,30.28,30.12,10,2,17,0.00
2012-10-14,78,68,63,64,53,11,98,70,10,30.19,30.01,11,0,11,0.00
2012-10-15,81,70,63,65,50,25,98,58,13,30.05,29.88,10,2,21,0.00
2012-10-16,85,72,48,66,53,28,98,60,18,29.94,29.78,9,2,17,0.00
2012-10-17,82,70,65,82,61,13,100,82,10,29.89,29.77,10,3,20,0.00
2012-10-18,87,73,66,85,57,19,100,72,9,29.97,29.85,7,1,10,0.00
2012-10-27,72,63,59,53,51,49,74,67,48,29.94,29.91,4,0,7,0.00
2012-10-28,77,64,53,55,51,47,82,65,42,30.00,29.90,4,0,10,0.00
2012-10-29,76,62,52,55,51,47,84,69,44,30.08,29.96,11,1,15,0.00
2012-10-30,76,62,51,56,51,46,84,70,43,30.05,29.90,6,0,13,0.00
2012-10-31,62,58,55,54,52,50,88,80,68,30.00,29.92,6,1,17,0.03
2012-11-1,68,60,55,58,54,51,91,83,66,30.02,29.97,6,0,11,0.39
2012-11-2,67,57,49,54,50,45,90,79,58,30.06,29.99,9,1,16,0.02
2012-11-3,70,58,49,54,50,45,87,76,54,30.13,30.03,10,1,21,0.00
2012-11-4,73,60,51,56,51,47,87,75,49,30.20,30.10,5,0,12,0.00
2012-11-5,76,62,52,58,53,48,86,74,50,30.16,30.02,5,0,12,0.00
2012-11-6,77,62,52,55,52,47,85,71,44,30.09,29.96,6,1,12,0.00
2012-11-7,72,60,51,57,50,45,83,72,48,30.00,29.84,9,1,17,0.00
2012-11-8,61,51,43,49,43,38,87,75,43,29.92,29.82,10,3,32,0.17
2012-11-9,54,47,42,43,40,35,89,76,51,29.94,29.88,8,1,15,0.12
2012-11-10,56,47,41,41,37,32,84,71,45,30.24,29.93,8,2,16,0.02
2012-11-11,57,46,37,37,34,31,82,66,40,30.38,30.24,9,2,16,0.00
2012-11-12,60,48,38,41,37,33,85,68,43,30.37,30.24,9,1,22,0.00
2012-11-13,63,50,41,43,40,36,85,70,47,30.27,30.07,8,1,13,0.00
2012-11-14,66,52,43,47,42,-100,86,72,46,30.14,30.01,7,0,10,0.00
2012-11-15,63,52,43,47,42,38,85,73,48,30.04,29.93,6,0,10,0.00
2012-11-16,59,53,47,52,47,41,89,80,68,30.02,29.89,7,1,10,0.16
2012-11-17,58,56,54,55,52,50,93,88,82,29.97,29.82,15,3,40,0.84
2012-11-18,60,54,50,52,48,44,92,82,60,30.17,29.97,9,1,18,0.61
2012-11-19,65,57,50,50,48,46,87,72,54,30.23,30.14,10,2,16,0.02
2012-11-20,66,58,51,52,49,46,86,72,58,30.15,30.01,11,3,22,0.11
2012-11-21,59,55,50,59,52,47,100,89,79,30.17,30.04,8,1,13,0.53
2012-11-22,61,51,46,48,45,43,92,82,59,30.23,30.16,10,1,14,0.02
2012-11-23,63,53,43,50,46,40,100,79,58,30.28,30.16,9,1,17,0.02
2012-11-24,63,54,45,50,46,42,89,76,58,30.20,30.02,0,0,0,0.00
2012-11-25,62,51,42,50,44,38,100,77,53,30.02,29.90,4,0,6,0.00
2012-11-26,62,52,43,49,44,39,87,76,59,30.06,29.96,9,1,15,0.00
2012-11-27,59,51,43,49,45,39,100,83,67,30.11,29.99,6,0,10,0.00
2012-11-28,56,53,50,56,50,47,100,90,87,30.04,29.87,11,4,40,0.74
2012-11-29,61,56,52,59,52,49,100,84,67,30.06,29.85,15,5,40,0.18
2012-11-30,57,57,55,55,54,53,93,92,89,30.00,29.76,14,6,36,2.32
2012-12-1,59,57,55,56,55,53,93,91,88,30.03,29.86,16,6,36,0.59
2012-12-2,59,56,52,56,53,48,100,90,78,30.00,29.69,32,8,54,1.53
2012-12-3,60,52,43,52,46,40,100,84,67,30.19,30.08,11,1,20,0.08
2012-12-4,58,56,52,53,52,51,100,85,82,30.22,30.15,6,1,9,0.00
2012-12-5,56,54,51,54,52,48,100,93,91,30.17,30.10,14,2,34,0.47
2012-12-6,55,53,49,53,49,-100,94,90,89,30.12,30.04,9,2,15,0.02
2012-12-7,55,48,44,49,45,41,93,88,77,30.13,30.05,7,0,14,0.02
2012-12-8,56,45,38,45,40,35,91,84,65,30.10,30.02,7,0,12,0.00
2012-12-9,56,46,39,48,42,36,91,85,70,30.18,30.08,6,0,10,0.00
2012-12-10,59,49,42,49,44,39,100,84,67,30.23,30.10,8,1,12,0.00
2012-12-11,59,50,43,50,45,40,90,82,69,30.10,29.79,14,3,24,0.08
2012-12-12,55,48,41,48,42,36,100,80,55,29.88,29.79,8,2,29,0.13
2012-12-13,50,43,38,41,38,34,90,82,64,29.92,29.82,12,2,24,0.22
2012-12-14,48,41,35,41,36,32,89,83,72,30.02,29.81,10,0,12,0.02
2012-12-15,44,41,34,41,37,31,89,87,82,30.10,30.02,15,0,20,0.04
2012-12-16,51,47,41,42,40,38,93,77,63,30.12,29.99,13,2,30,0.02
2012-12-17,52,50,45,52,46,41,100,89,70,30.04,29.94,14,4,49,0.39
2012-12-18,48,43,36,43,33,26,90,69,43,30.15,29.94,17,3,42,0.04
2012-12-19,48,38,30,32,29,25,85,70,43,30.31,30.14,7,1,15,0.00
2012-12-20,54,44,35,32,29,26,80,58,34,30.25,30.01,15,3,33,0.00
2012-12-21,50,45,42,43,34,25,88,66,46,30.01,29.86,14,4,29,0.39
2012-12-22,51,48,45,50,44,41,100,86,76,30.06,29.80,14,6,44,0.88
2012-12-23,50,48,46,47,45,43,92,90,87,30.08,29.87,17,7,47,0.94
2012-12-24,51,46,40,46,42,37,100,88,79,30.20,29.97,13,2,20,0.10
2012-12-25,45,42,39,43,40,36,92,91,89,30.15,29.78,15,2,24,0.90
2012-12-26,50,45,38,44,42,35,92,89,77,30.08,29.82,9,2,25,0.45
2012-12-27,49,41,37,41,38,34,91,86,74,30.16,30.06,12,1,17,0.02
2012-12-28,46,41,36,39,36,32,90,82,69,30.19,30.04,9,1,14,0.00
2012-12-29,50,43,39,41,38,34,91,82,63,30.06,29.99,9,2,19,0.00
2012-12-30,51,42,34,39,33,26,89,71,53,30.12,30.01,12,4,43,0.00
2012-12-31,51,40,31,38,31,25,85,71,56,30.29,30.12,12,2,20,0.00
2013-1-1,50,40,34,36,32,29,86,74,44,30.29,30.18,12,2,20,0.00